Chiswick, United Kingdom
Current Conditions -  °F | °C
As of 8:03 AM on Friday 31 Oct 2014 (Local Time) from EGWU Reporting Station
Light Fog Light Fog  
Wind Chill: 52°   Ceiling: 25000
Heat Index: 52°   Visibility: 2.5mi
Dew Point: 52°   Wind: 2mph
Humidity: 100%   Direction: 120°ESE
Pressure: 30.06"   Gusts: NA
Location:  51.5°N, 0.25°W
Report Text: EGWU 310803Z 12002KT 4000 2000NW MIFG BKN250 11/11 Q1018 YLO2 BECMG 5000 HZ WHT
Loading
Personal Weather Stations






























Interactive Weather Map
Tropical Storm Tracking
New forecast layout! Learn more

10-Day Weather Forecast

Advertisements
Track Severe Weather on mobile